Time;durP1;ratioP1;P1;durP2;ratioP2;P2;SDS_P1;SDS_P2;PMS_P1;PMS_P2;Temp;Humidity;BMP_temperature;BMP_pressure;BME280_temperature;BME280_humidity;BME280_pressure;Samples;Min_cycle;Max_cycle;Signal;HPM_P1;HPM_P2
2023/09/19 00:03:49;;;;;;;1999.90;999.90;;;;;;;14.84;100.00;100657.91;10456655;28;20095;-73
2023/09/19 00:08:54;;;;;;;1999.90;999.90;;;;;;;14.99;100.00;100683.06;10454720;28;20448;-72
2023/09/19 00:13:59;;;;;;;1999.90;999.90;;;;;;;14.94;100.00;100669.41;10456525;28;20095;-73
2023/09/19 00:19:08;;;;;;;1999.90;999.90;;;;;;;14.77;100.00;100689.16;10455227;28;20128;-72
2023/09/19 00:24:11;;;;;;;1999.90;999.90;;;;;;;14.86;100.00;100684.97;10456385;28;20131;-72
2023/09/19 00:29:16;;;;;;;1999.90;999.90;;;;;;;14.95;100.00;100693.97;10454360;28;20076;-72
2023/09/19 00:34:18;;;;;;;1999.90;999.90;;;;;;;14.83;100.00;100699.25;10455487;28;20568;-72
2023/09/19 00:39:21;;;;;;;1999.90;999.90;;;;;;;14.87;100.00;100707.75;10455821;28;20106;-72
2023/09/19 00:44:24;;;;;;;1999.90;999.90;;;;;;;14.64;100.00;100710.34;10454998;28;20122;-71
2023/09/19 00:49:27;;;;;;;1999.90;999.90;;;;;;;14.72;100.00;100714.19;10455715;28;20052;-71
2023/09/19 00:54:29;;;;;;;1999.90;999.90;;;;;;;14.86;100.00;100724.50;10459758;28;20057;-71
2023/09/19 00:59:32;;;;;;;1999.90;999.90;;;;;;;14.64;100.00;100726.16;10445159;28;20053;-72
2023/09/19 01:04:35;;;;;;;1999.90;999.90;;;;;;;14.64;100.00;100734.06;10461921;28;20132;-72
2023/09/19 01:09:38;;;;;;;1999.90;999.90;;;;;;;14.33;100.00;100739.91;10462950;28;20072;-72
2023/09/19 01:14:58;;;;;;;1999.90;999.90;;;;;;;14.66;100.00;100741.84;10462822;28;20132;-72
2023/09/19 01:20:27;;;;;;;1999.90;999.90;;;;;;;14.31;100.00;100737.41;10460900;28;20539;-72
2023/09/19 01:25:48;;;;;;;1999.90;999.90;;;;;;;14.29;100.00;100745.41;10460548;28;20379;-72
2023/09/19 01:30:58;;;;;;;1999.90;999.90;;;;;;;14.18;100.00;100752.41;10461085;28;20132;-72
2023/09/19 01:36:00;;;;;;;1999.90;999.90;;;;;;;14.19;100.00;100754.94;10460888;28;20287;-73
2023/09/19 01:41:06;;;;;;;1999.90;999.90;;;;;;;14.26;100.00;100752.69;10459864;28;20055;-72
2023/09/19 01:46:15;;;;;;;1999.90;999.90;;;;;;;14.14;100.00;100754.44;10459758;28;20047;-72
2023/09/19 01:51:46;;;;;;;1999.90;999.90;;;;;;;14.07;100.00;100769.84;10460223;28;20549;-72
2023/09/19 01:56:51;;;;;;;1999.90;999.90;;;;;;;14.13;100.00;100765.91;10421636;28;20051;-72
2023/09/19 02:01:55;;;;;;;1999.90;999.90;;;;;;;14.23;100.00;100772.19;10443331;28;20077;-72
2023/09/19 02:06:58;;;;;;;1999.90;999.90;;;;;;;14.00;100.00;100773.84;10458350;28;20044;-72
2023/09/19 02:12:00;;;;;;;1999.90;999.90;;;;;;;13.95;100.00;100778.59;10459442;28;20080;-72
2023/09/19 02:17:06;;;;;;;1999.90;999.90;;;;;;;13.76;100.00;100768.56;10460398;28;20052;-73
2023/09/19 02:22:10;;;;;;;1999.90;999.90;;;;;;;13.98;100.00;100775.75;10442561;28;20091;-72
2023/09/19 02:27:14;;;;;;;1999.90;999.90;;;;;;;13.88;100.00;100766.84;10458698;28;20052;-72
2023/09/19 02:32:17;;;;;;;1999.90;999.90;;;;;;;13.87;100.00;100767.78;10459767;28;20056;-72
2023/09/19 02:37:21;;;;;;;1999.90;999.90;;;;;;;13.73;100.00;100766.13;10457728;28;20486;-72
2023/09/19 02:42:23;;;;;;;1999.90;999.90;;;;;;;13.51;100.00;100769.47;10458860;28;20057;-72
2023/09/19 02:47:27;;;;;;;1999.90;999.90;;;;;;;13.56;100.00;100767.34;10459051;28;20049;-72
2023/09/19 02:52:29;;;;;;;1999.90;999.90;;;;;;;13.23;100.00;100770.50;10458927;28;20059;-71
2023/09/19 02:57:33;;;;;;;1999.90;999.90;;;;;;;13.29;100.00;100772.72;10458751;28;20071;-71
2023/09/19 03:02:35;;;;;;;1999.90;999.90;;;;;;;13.55;100.00;100777.03;10458569;28;20062;-71
2023/09/19 03:07:38;;;;;;;1999.90;999.90;;;;;;;13.32;100.00;100791.78;10458283;28;20087;-71
2023/09/19 03:12:40;;;;;;;1999.90;999.90;;;;;;;13.23;100.00;100789.75;10456410;28;20056;-71
2023/09/19 03:17:47;;;;;;;1999.90;999.90;;;;;;;13.20;100.00;100790.78;10457076;28;20052;-71
2023/09/19 03:22:50;;;;;;;1999.90;999.90;;;;;;;13.22;100.00;100780.19;10457154;28;20465;-71
2023/09/19 03:27:52;;;;;;;1999.90;999.90;;;;;;;13.09;100.00;100784.59;10457591;28;20053;-71
2023/09/19 03:32:55;;;;;;;1999.90;999.90;;;;;;;12.81;100.00;100799.59;10457438;28;20080;-71
2023/09/19 03:37:57;;;;;;;1999.90;999.90;;;;;;;12.78;100.00;100791.94;10439754;28;20045;-71
2023/09/19 03:43:02;;;;;;;1999.90;999.90;;;;;;;12.71;100.00;100786.25;10456630;28;20063;-71
2023/09/19 03:48:09;;;;;;;1999.90;999.90;;;;;;;12.93;100.00;100774.28;10439402;28;20157;-71
2023/09/19 03:53:12;;;;;;;1999.90;999.90;;;;;;;12.66;100.00;100774.34;10455906;28;20053;-71
2023/09/19 03:58:14;;;;;;;1999.90;999.90;;;;;;;12.61;100.00;100787.78;10456246;28;20374;-71
2023/09/19 04:03:20;;;;;;;1999.90;999.90;;;;;;;12.56;100.00;100787.25;10456703;28;20132;-71
2023/09/19 04:08:23;;;;;;;1999.90;999.90;;;;;;;12.69;100.00;100788.09;10455936;28;20049;-72
2023/09/19 04:13:26;;;;;;;1999.90;999.90;;;;;;;12.75;100.00;100776.38;10455891;28;20085;-72
2023/09/19 04:18:31;;;;;;;1999.90;999.90;;;;;;;12.70;100.00;100779.28;10455794;28;20048;-71
2023/09/19 04:23:33;;;;;;;1999.90;999.90;;;;;;;12.95;100.00;100782.91;10454569;28;20051;-71
2023/09/19 04:28:38;;;;;;;1999.90;999.90;;;;;;;13.09;100.00;100785.44;10440596;28;20442;-71
2023/09/19 04:33:43;;;;;;;1999.90;999.90;;;;;;;12.75;100.00;100800.00;10463870;28;20052;-71
2023/09/19 04:38:46;;;;;;;1999.90;999.90;;;;;;;13.08;100.00;100819.69;10463490;28;20060;-71
2023/09/19 04:43:50;;;;;;;1999.90;999.90;;;;;;;13.00;100.00;100828.94;10463398;28;20136;-70
2023/09/19 04:48:53;;;;;;;1999.90;999.90;;;;;;;12.91;100.00;100847.09;10463707;28;20052;-71
2023/09/19 04:53:56;;;;;;;1999.90;999.90;;;;;;;12.97;100.00;100830.94;10483124;22;20039;-71
2023/09/19 04:58:59;;;;;;;1999.90;999.90;;;;;;;12.99;100.00;100836.94;10553579;28;20050;-71
2023/09/19 05:04:01;;;;;;;1999.90;999.90;;;;;;;12.69;100.00;100839.81;10570861;28;20077;-72
2023/09/19 05:09:05;;;;;;;1999.90;999.90;;;;;;;13.19;100.00;100857.47;10588575;28;20054;-72
2023/09/19 05:14:07;;;;;;;1999.90;999.90;;;;;;;13.10;100.00;100859.88;10588449;28;20109;-72
2023/09/19 05:19:11;;;;;;;1999.90;999.90;;;;;;;13.05;100.00;100852.31;10587593;28;20047;-72
2023/09/19 05:24:14;;;;;;;1999.90;999.90;;;;;;;13.20;100.00;100853.06;10588043;28;20094;-72
2023/09/19 05:29:17;;;;;;;1999.90;999.90;;;;;;;13.11;100.00;100838.75;10587125;28;20507;-72
2023/09/19 05:34:19;;;;;;;1999.90;999.90;;;;;;;12.95;100.00;100843.34;10587653;28;20058;-72
2023/09/19 05:39:22;;;;;;;1999.90;999.90;;;;;;;13.10;100.00;100852.00;10585818;28;20112;-72
2023/09/19 05:44:25;;;;;;;1999.90;999.90;;;;;;;13.09;100.00;100852.94;10586611;28;20400;-72
2023/09/19 05:49:28;;;;;;;1999.90;999.90;;;;;;;13.19;100.00;100852.19;10568949;28;20046;-72
2023/09/19 05:54:30;;;;;;;1999.90;999.90;;;;;;;13.01;100.00;100871.81;10586571;28;20058;-73
2023/09/19 05:59:33;;;;;;;1999.90;999.90;;;;;;;13.38;100.00;100857.09;10585976;28;20130;-72
2023/09/19 06:04:35;;;;;;;1999.90;999.90;;;;;;;13.27;100.00;100846.44;10568485;28;20054;-72
2023/09/19 06:09:38;;;;;;;1999.90;999.90;;;;;;;13.44;100.00;100845.31;10586095;28;20043;-72
2023/09/19 06:14:40;;;;;;;1999.90;999.90;;;;;;;13.65;100.00;100857.91;10585972;28;20080;-72
2023/09/19 06:19:47;;;;;;;1999.90;999.90;;;;;;;13.40;100.00;100857.00;10567680;28;20054;-72
2023/09/19 06:24:50;;;;;;;1999.90;999.90;;;;;;;13.38;100.00;100859.72;10585142;28;20047;-72
2023/09/19 06:29:52;;;;;;;1999.90;999.90;;;;;;;13.67;100.00;100864.78;10566578;28;20400;-72
2023/09/19 06:34:54;;;;;;;1999.90;999.90;;;;;;;13.62;100.00;100859.00;10585156;28;20047;-72
2023/09/19 06:39:57;;;;;;;1999.90;999.90;;;;;;;14.00;100.00;100873.88;10566964;28;20047;-72
2023/09/19 06:44:59;;;;;;;1999.90;999.90;;;;;;;14.09;100.00;100875.03;10566624;28;20051;-72
2023/09/19 06:50:02;;;;;;;1999.90;999.90;;;;;;;14.08;100.00;100881.25;10583740;28;20069;-72
2023/09/19 06:55:06;;;;;;;1999.90;999.90;;;;;;;14.08;100.00;100883.88;10565533;28;20558;-72
2023/09/19 07:00:15;;;;;;;1999.90;999.90;;;;;;;14.05;100.00;100881.44;10549121;28;20399;-72
2023/09/19 07:05:18;;;;;;;1999.90;999.90;;;;;;;14.01;100.00;100874.72;10583994;28;20100;-72
2023/09/19 07:10:23;;;;;;;1999.90;999.90;;;;;;;14.15;100.00;100877.22;10565913;28;20071;-73
2023/09/19 07:15:27;;;;;;;1999.90;999.90;;;;;;;14.69;100.00;100881.25;10565359;28;20113;-76
2023/09/19 07:20:31;;;;;;;1999.90;999.90;;;;;;;14.77;100.00;100883.34;10582700;28;20052;-76
2023/09/19 07:25:36;;;;;;;1999.90;999.90;;;;;;;14.75;100.00;100882.63;10566175;28;20039;-76
2023/09/19 07:30:39;;;;;;;1999.90;999.90;;;;;;;14.94;100.00;100869.75;10564274;28;20491;-75
2023/09/19 07:35:45;;;;;;;1999.90;999.90;;;;;;;15.22;100.00;100888.78;10564137;28;20075;-76
2023/09/19 07:40:48;;;;;;;1999.90;999.90;;;;;;;15.36;100.00;100893.84;10564189;28;20412;-73
2023/09/19 07:45:50;;;;;;;1999.90;999.90;;;;;;;15.68;100.00;100887.06;10582510;28;20051;-77
2023/09/19 07:50:53;;;;;;;1999.90;999.90;;;;;;;15.67;100.00;100878.31;10581737;28;20051;-77
2023/09/19 07:56:05;;;;;;;1999.90;999.90;;;;;;;15.77;100.00;100891.66;10581885;28;20051;-78
2023/09/19 08:01:10;;;;;;;1999.90;999.90;;;;;;;15.99;100.00;100896.09;10582239;28;20052;-78
2023/09/19 08:06:13;;;;;;;1999.90;999.90;;;;;;;16.33;100.00;100906.63;10546961;28;20050;-80
2023/09/19 08:11:21;;;;;;;1999.90;999.90;;;;;;;16.48;97.07;100894.81;10582052;28;20066;-79
2023/09/19 08:16:24;;;;;;;1999.90;999.90;;;;;;;17.01;97.49;100898.50;10581377;28;20134;-78
2023/09/19 08:21:29;;;;;;;1999.90;999.90;;;;;;;16.41;95.75;100890.16;10581887;28;20545;-81
2023/09/19 08:26:32;;;;;;;1999.90;999.90;;;;;;;16.82;93.89;100899.16;10581760;28;20051;-78
2023/09/19 08:31:34;;;;;;;1999.90;999.90;;;;;;;16.46;97.97;100904.69;10581481;28;20058;-78
2023/09/19 08:36:38;;;;;;;1999.90;999.90;;;;;;;16.98;94.08;100902.25;10580950;28;20046;-83
2023/09/19 08:41:40;;;;;;;1999.90;999.90;;;;;;;16.64;93.86;100898.84;10584270;28;20054;-83
2023/09/19 08:46:44;;;;;;;1999.90;999.90;;;;;;;16.93;95.04;100900.94;10581629;28;20051;-76
2023/09/19 08:51:50;;;;;;;1999.90;999.90;;;;;;;17.78;92.48;100886.72;10563484;28;20127;-81
2023/09/19 08:56:54;;;;;;;1999.90;999.90;;;;;;;18.03;88.48;100897.88;10562800;28;20050;-77
2023/09/19 09:01:57;;;;;;;1999.90;999.90;;;;;;;18.01;86.84;100893.53;10563080;28;20075;-78
2023/09/19 09:07:00;;;;;;;1999.90;999.90;;;;;;;18.28;87.17;100892.09;10521848;28;20051;-72
2023/09/19 09:12:03;;;;;;;1999.90;999.90;;;;;;;18.90;83.97;100889.25;10520921;28;20059;-72
2023/09/19 09:17:07;;;;;;;1999.90;999.90;;;;;;;19.39;80.90;100902.47;10543272;28;20051;-72
2023/09/19 09:22:11;;;;;;;1999.90;999.90;;;;;;;19.77;78.21;100890.94;10511435;28;20052;-72
2023/09/19 09:27:13;;;;;;;1999.90;999.90;;;;;;;20.90;77.01;100878.22;10527600;28;20048;-71
2023/09/19 09:32:21;;;;;;;1999.90;999.90;;;;;;;19.90;76.85;100884.44;10544768;28;20163;-71
2023/09/19 09:37:26;;;;;;;1999.90;999.90;;;;;;;21.07;75.79;100865.88;10527276;28;20052;-73
2023/09/19 09:42:41;;;;;;;1999.90;999.90;;;;;;;20.52;72.95;100853.56;10494122;28;20510;-75
2023/09/19 09:47:54;;;;;;;1999.90;999.90;;;;;;;20.94;72.43;100846.81;10544749;28;20051;-72
2023/09/19 09:53:06;;;;;;;1999.90;999.90;;;;;;;21.91;71.90;100855.56;10512573;28;20054;-72
2023/09/19 09:58:24;;;;;;;1999.90;999.90;;;;;;;22.00;69.27;100859.91;10543677;28;20444;-74
2023/09/19 10:03:43;;;;;;;1999.90;999.90;;;;;;;22.25;67.01;100868.81;10527286;28;20058;-73
2023/09/19 10:09:10;;;;;;;1999.90;999.90;;;;;;;23.16;65.10;100867.09;10526821;28;20044;-73
2023/09/19 10:14:16;;;;;;;1999.90;999.90;;;;;;;22.84;64.37;100853.75;10543800;28;20048;-73
2023/09/19 10:19:28;;;;;;;1999.90;999.90;;;;;;;21.96;65.89;100847.91;10525017;28;20538;-76
2023/09/19 10:24:31;;;;;;;1999.90;999.90;;;;;;;22.51;66.03;100846.56;10525524;28;20044;-76
2023/09/19 10:29:36;;;;;;;1999.90;999.90;;;;;;;22.67;66.15;100847.59;10524304;28;20052;-75
2023/09/19 10:34:41;;;;;;;1999.90;999.90;;;;;;;24.09;62.46;100846.97;10543033;28;20076;-75
2023/09/19 10:39:47;;;;;;;1999.90;999.90;;;;;;;23.64;64.50;100845.78;10542919;28;20131;-70
2023/09/19 10:44:55;;;;;;;1999.90;999.90;;;;;;;23.27;62.30;100838.41;10542653;28;20056;-70
2023/09/19 10:49:58;;;;;;;1999.90;999.90;;;;;;;22.25;65.60;100846.66;10542333;28;20040;-70
2023/09/19 10:55:02;;;;;;;1999.90;999.90;;;;;;;23.61;63.35;100845.31;10542038;28;20109;-81
2023/09/19 11:00:27;;;;;;;1999.90;999.90;;;;;;;22.56;63.98;100846.06;10524617;28;20130;-80
2023/09/19 11:05:30;;;;;;;1999.90;999.90;;;;;;;23.88;61.51;100828.84;10513950;28;20044;-81
2023/09/19 11:10:51;;;;;;;1999.90;999.90;;;;;;;22.31;61.51;100816.69;10524025;28;20048;-80
2023/09/19 11:16:03;;;;;;;1999.90;999.90;;;;;;;22.96;60.13;100807.88;10542067;28;20425;-80
2023/09/19 11:21:31;;;;;;;1999.90;999.90;;;;;;;23.25;62.12;100816.34;10543170;28;20044;-79
2023/09/19 11:26:47;;;;;;;1999.90;999.90;;;;;;;23.08;60.58;100787.03;10542025;28;20048;-80
2023/09/19 11:31:51;;;;;;;1999.90;999.90;;;;;;;23.82;60.74;100777.91;10524143;28;20076;-81
2023/09/19 11:36:54;;;;;;;1999.90;999.90;;;;;;;25.31;57.89;100775.72;10541348;28;20050;-80
2023/09/19 11:41:56;;;;;;;1999.90;999.90;;;;;;;23.86;59.12;100761.34;10541512;28;20074;-79
2023/09/19 11:46:59;;;;;;;1999.90;999.90;;;;;;;24.38;57.58;100732.25;10541339;28;20073;-79
2023/09/19 11:52:05;;;;;;;1999.90;999.90;;;;;;;24.71;56.00;100764.09;10523269;28;20048;-80
2023/09/19 11:57:08;;;;;;;1999.90;999.90;;;;;;;24.89;55.28;100780.63;10507589;28;20052;-79
2023/09/19 12:02:26;;;;;;;1999.90;999.90;;;;;;;24.11;58.97;100766.56;10523373;28;20054;-77
2023/09/19 12:07:30;;;;;;;1999.90;999.90;;;;;;;23.22;58.61;100768.59;10523376;28;20109;-77
2023/09/19 12:12:33;;;;;;;1999.90;999.90;;;;;;;24.36;56.38;100772.56;10521977;28;20485;-78
2023/09/19 12:17:43;;;;;;;1999.90;999.90;;;;;;;24.10;59.20;100764.88;10540329;28;20044;-78
2023/09/19 12:22:47;;;;;;;1999.90;999.90;;;;;;;23.93;58.26;100754.28;10522118;28;20059;-78
2023/09/19 12:27:52;;;;;;;1999.90;999.90;;;;;;;24.85;54.56;100747.22;10521935;28;20055;-78
2023/09/19 12:32:58;;;;;;;1999.90;999.90;;;;;;;24.40;57.46;100739.06;10539754;28;20075;-77
2023/09/19 12:38:03;;;;;;;1999.90;999.90;;;;;;;23.42;59.69;100758.34;10540460;28;20123;-80
2023/09/19 12:43:09;;;;;;;1999.90;999.90;;;;;;;22.42;58.40;100776.34;10523185;28;20052;-78
2023/09/19 12:48:31;;;;;;;1999.90;999.90;;;;;;;22.00;62.12;100761.28;10539321;28;20483;-78
2023/09/19 12:53:37;;;;;;;1999.90;999.90;;;;;;;21.77;62.96;100761.06;10530498;28;20070;-79
2023/09/19 12:58:53;;;;;;;1999.90;999.90;;;;;;;20.99;64.60;100782.47;10547998;28;20431;-78
2023/09/19 13:04:19;;;;;;;1999.90;999.90;;;;;;;20.75;63.87;100768.84;10528669;28;20447;-79
2023/09/19 13:09:34;;;;;;;1999.90;999.90;;;;;;;20.51;64.65;100780.09;10529609;28;20075;-78
2023/09/19 13:14:40;;;;;;;1999.90;999.90;;;;;;;20.28;65.80;100774.41;10545900;28;20584;-77
2023/09/19 13:19:57;;;;;;;1999.90;999.90;;;;;;;20.50;65.33;100772.28;10546359;28;20048;-78
2023/09/19 13:25:01;;;;;;;1999.90;999.90;;;;;;;20.58;65.56;100772.34;10546295;28;20086;-77
2023/09/19 13:30:04;;;;;;;1999.90;999.90;;;;;;;20.20;69.32;100779.63;10545700;28;20052;-77
2023/09/19 13:35:11;;;;;;;1999.90;999.90;;;;;;;20.86;65.18;100765.06;10545735;28;20127;-77
2023/09/19 13:40:15;;;;;;;1999.90;999.90;;;;;;;21.03;65.57;100758.06;10527546;28;20511;-76
2023/09/19 13:45:22;;;;;;;1999.90;999.90;;;;;;;20.22;67.10;100757.25;10527491;28;20048;-75
2023/09/19 13:50:25;;;;;;;1999.90;999.90;;;;;;;20.39;69.86;100760.88;10545002;28;20044;-77
2023/09/19 13:55:27;;;;;;;1999.90;999.90;;;;;;;20.21;68.77;100770.69;10509777;28;20492;-77
2023/09/19 14:00:29;;;;;;;1999.90;999.90;;;;;;;20.41;68.40;100763.41;10543674;28;20051;-77
2023/09/19 14:05:32;;;;;;;1999.90;999.90;;;;;;;20.58;68.26;100759.03;10525809;28;20062;-77
2023/09/19 14:10:35;;;;;;;1999.90;999.90;;;;;;;21.33;67.39;100758.53;10543530;28;20405;-77
2023/09/19 14:15:38;;;;;;;1999.90;999.90;;;;;;;22.71;63.10;100755.50;10525459;28;20158;-78
2023/09/19 14:20:41;;;;;;;1999.90;999.90;;;;;;;21.05;65.14;100741.94;10544023;28;20048;-76
2023/09/19 14:25:43;;;;;;;1999.90;999.90;;;;;;;20.90;68.83;100739.84;10543378;28;20048;-77
2023/09/19 14:30:46;;;;;;;1999.90;999.90;;;;;;;20.95;69.79;100742.88;10525877;28;20075;-78
2023/09/19 14:35:48;;;;;;;1999.90;999.90;;;;;;;20.12;70.05;100753.81;10543357;28;20048;-78
2023/09/19 14:41:00;;;;;;;1999.90;999.90;;;;;;;20.05;69.99;100789.94;10543270;28;20123;-77
2023/09/19 14:46:10;;;;;;;1999.90;999.90;;;;;;;20.19;70.34;100749.56;10557015;28;20134;-79
2023/09/19 14:51:13;;;;;;;1999.90;999.90;;;;;;;20.08;69.44;100759.59;10566584;28;20048;-79
2023/09/19 14:56:18;;;;;;;1999.90;999.90;;;;;;;19.91;70.97;100740.81;10565708;28;20061;-78
2023/09/19 15:01:22;;;;;;;1999.90;999.90;;;;;;;19.64;70.46;100734.53;10584407;28;20040;-78
2023/09/19 15:06:26;;;;;;;1999.90;999.90;;;;;;;19.85;70.92;100728.13;10566162;28;20113;-78
2023/09/19 15:11:28;;;;;;;1999.90;999.90;;;;;;;20.05;72.11;100734.16;10584013;28;20047;-78
2023/09/19 15:16:32;;;;;;;1999.90;999.90;;;;;;;19.82;72.76;100731.06;10584007;28;20047;-77
2023/09/19 15:21:35;;;;;;;1999.90;999.90;;;;;;;19.44;73.02;100744.41;10583822;28;20122;-78
2023/09/19 15:26:42;;;;;;;1999.90;999.90;;;;;;;19.10;72.79;100736.19;10584292;28;20044;-78
2023/09/19 15:31:45;;;;;;;1999.90;999.90;;;;;;;19.09;75.34;100743.28;10565533;28;20077;-77
2023/09/19 15:36:47;;;;;;;1999.90;999.90;;;;;;;19.30;73.95;100729.81;10583391;28;20101;-80
2023/09/19 15:41:51;;;;;;;1999.90;999.90;;;;;;;19.07;73.71;100737.28;10566298;28;20071;-77
2023/09/19 15:46:53;;;;;;;1999.90;999.90;;;;;;;19.13;75.41;100741.19;10583331;28;20084;-78
2023/09/19 15:51:55;;;;;;;1999.90;999.90;;;;;;;18.88;76.90;100740.84;10581764;28;20488;-77
2023/09/19 15:57:00;;;;;;;1999.90;999.90;;;;;;;18.78;76.46;100745.31;10581759;28;20048;-78
2023/09/19 16:02:03;;;;;;;1999.90;999.90;;;;;;;18.79;77.32;100743.50;10563656;28;20048;-77
2023/09/19 16:07:06;;;;;;;1999.90;999.90;;;;;;;18.70;76.72;100747.84;10582210;28;20051;-78
2023/09/19 16:12:10;;;;;;;1999.90;999.90;;;;;;;18.55;80.07;100750.09;10581438;28;20412;-77
2023/09/19 16:17:13;;;;;;;1999.90;999.90;;;;;;;18.78;78.09;100760.38;10581949;28;20067;-78
2023/09/19 16:22:15;;;;;;;1999.90;999.90;;;;;;;18.77;78.52;100756.88;10564489;28;20071;-78
2023/09/19 16:27:21;;;;;;;1999.90;999.90;;;;;;;18.80;78.25;100751.31;10588573;28;20043;-79
2023/09/19 16:32:23;;;;;;;1999.90;999.90;;;;;;;18.63;79.05;100755.53;10590374;28;20075;-78
2023/09/19 16:37:25;;;;;;;1999.90;999.90;;;;;;;18.52;79.39;100764.44;10590083;28;20337;-78
2023/09/19 16:42:28;;;;;;;1999.90;999.90;;;;;;;18.54;79.87;100762.50;10589264;28;20055;-78
2023/09/19 16:47:39;;;;;;;1999.90;999.90;;;;;;;18.43;80.79;100770.59;10589120;28;20044;-78
2023/09/19 16:52:41;;;;;;;1999.90;999.90;;;;;;;18.48;80.10;100770.19;10589620;28;20055;-78
2023/09/19 16:57:44;;;;;;;1999.90;999.90;;;;;;;18.52;80.98;100763.63;10588670;28;20043;-78
2023/09/19 17:02:47;;;;;;;1999.90;999.90;;;;;;;18.28;81.81;100764.06;10589043;28;20058;-78
2023/09/19 17:07:55;;;;;;;1999.90;999.90;;;;;;;18.33;82.73;100762.66;10589086;28;20122;-79
2023/09/19 17:12:57;;;;;;;1999.90;999.90;;;;;;;18.45;80.19;100768.63;10483082;22;20410;-79
2023/09/19 17:18:00;;;;;;;1999.90;999.90;;;;;;;18.31;80.12;100761.94;10462343;28;20404;-79
2023/09/19 17:23:02;;;;;;;1999.90;999.90;;;;;;;18.36;80.87;100780.09;10445130;28;20081;-77
2023/09/19 17:28:05;;;;;;;1999.90;999.90;;;;;;;18.29;82.55;100757.75;10444271;28;20045;-78
2023/09/19 17:33:07;;;;;;;1999.90;999.90;;;;;;;18.21;83.18;100769.06;10461717;28;20163;-77
2023/09/19 17:38:10;;;;;;;1999.90;999.90;;;;;;;18.38;82.68;100763.06;10460977;28;20052;-77
2023/09/19 17:43:13;;;;;;;1999.90;999.90;;;;;;;18.03;84.21;100753.00;10460247;28;20478;-78
2023/09/19 17:48:15;;;;;;;1999.90;999.90;;;;;;;18.04;83.28;100753.84;10462012;28;20049;-77
2023/09/19 17:53:17;;;;;;;1999.90;999.90;;;;;;;18.08;83.74;100755.25;10461611;28;20068;-77
2023/09/19 17:58:20;;;;;;;1999.90;999.90;;;;;;;17.96;85.33;100763.31;10460440;28;20045;-77
2023/09/19 18:03:25;;;;;;;1999.90;999.90;;;;;;;18.01;84.73;100750.50;10460038;28;20056;-77
2023/09/19 18:08:28;;;;;;;1999.90;999.90;;;;;;;17.73;88.77;100752.06;10459465;28;20110;-77
2023/09/19 18:13:31;;;;;;;1999.90;999.90;;;;;;;17.87;89.01;100772.09;10461400;28;20513;-78
2023/09/19 18:18:33;;;;;;;1999.90;999.90;;;;;;;17.85;87.29;100767.84;10442457;28;20045;-78
2023/09/19 18:23:36;;;;;;;1999.90;999.90;;;;;;;17.85;85.30;100768.69;10442821;28;20048;-78
2023/09/19 18:28:38;;;;;;;1999.90;999.90;;;;;;;17.88;85.40;100776.41;10442766;28;20088;-78
2023/09/19 18:33:41;;;;;;;1999.90;999.90;;;;;;;17.88;85.99;100791.47;10460502;28;20055;-78
2023/09/19 18:38:44;;;;;;;1999.90;999.90;;;;;;;17.85;85.69;100783.75;10459246;28;20055;-80
2023/09/19 18:43:47;;;;;;;1999.90;999.90;;;;;;;17.91;84.85;100777.94;10460158;28;20049;-79
2023/09/19 18:48:52;;;;;;;1999.90;999.90;;;;;;;17.91;86.46;100788.53;10459433;28;20044;-80
2023/09/19 18:53:55;;;;;;;1999.90;999.90;;;;;;;17.79;86.62;100795.72;10457856;28;20480;-80
2023/09/19 18:59:14;;;;;;;1999.90;999.90;;;;;;;17.72;87.29;100786.63;10458533;28;20179;-80
2023/09/19 19:04:18;;;;;;;1999.90;999.90;;;;;;;17.83;87.38;100789.16;10458720;28;20053;-79
2023/09/19 19:09:20;;;;;;;1999.90;999.90;;;;;;;17.69;90.04;100784.28;10458492;28;20081;-79
2023/09/19 19:14:23;;;;;;;1999.90;999.90;;;;;;;17.62;89.76;100790.09;10459960;28;20052;-78
2023/09/19 19:19:27;;;;;;;1999.90;999.90;;;;;;;17.57;91.12;100791.47;10439982;28;20124;-79
2023/09/19 19:24:29;;;;;;;1999.90;999.90;;;;;;;17.68;89.20;100790.53;10458863;28;20053;-78
2023/09/19 19:29:31;;;;;;;1999.90;999.90;;;;;;;17.70;89.08;100780.63;10457699;28;20052;-78
2023/09/19 19:34:34;;;;;;;1999.90;999.90;;;;;;;17.67;90.20;100791.50;10456551;28;20049;-79
2023/09/19 19:39:36;;;;;;;1999.90;999.90;;;;;;;17.72;90.35;100781.34;10439395;28;20040;-79
2023/09/19 19:44:38;;;;;;;1999.90;999.90;;;;;;;17.58;91.72;100786.03;10456903;28;20164;-78
2023/09/19 19:49:41;;;;;;;1999.90;999.90;;;;;;;17.62;89.99;100784.81;10457392;28;20040;-79
2023/09/19 19:54:48;;;;;;;1999.90;999.90;;;;;;;17.54;90.31;100784.63;10457954;28;20060;-79
2023/09/19 19:59:54;;;;;;;1999.90;999.90;;;;;;;17.57;91.13;100786.19;10457741;28;20045;-79
2023/09/19 20:04:56;;;;;;;1999.90;999.90;;;;;;;17.64;89.13;100792.63;10458757;28;20053;-76
2023/09/19 20:09:59;;;;;;;1999.90;999.90;;;;;;;17.54;91.96;100789.91;10457521;28;20049;-77
2023/09/19 20:15:03;;;;;;;1999.90;999.90;;;;;;;17.53;90.98;100787.41;10457402;28;20053;-78
2023/09/19 20:20:15;;;;;;;1999.90;999.90;;;;;;;17.71;90.09;100777.03;10456133;28;20476;-78
2023/09/19 20:25:18;;;;;;;1999.90;999.90;;;;;;;17.59;90.91;100785.06;10456259;28;20050;-78
2023/09/19 20:30:20;;;;;;;1999.90;999.90;;;;;;;17.43;90.62;100780.28;10461280;28;20136;-79
2023/09/19 20:35:22;;;;;;;1999.90;999.90;;;;;;;17.38;94.07;100785.13;10459372;28;20513;-78
2023/09/19 20:40:25;;;;;;;1999.90;999.90;;;;;;;17.45;92.35;100788.91;10456365;28;20056;-78
2023/09/19 20:45:27;;;;;;;1999.90;999.90;;;;;;;17.45;91.71;100793.38;10457551;28;20049;-78
2023/09/19 20:50:29;;;;;;;1999.90;999.90;;;;;;;17.42;91.03;100785.69;10459377;28;20084;-78
2023/09/19 20:55:34;;;;;;;1999.90;999.90;;;;;;;17.54;90.40;100783.81;10461911;28;20056;-78
2023/09/19 21:00:41;;;;;;;1999.90;999.90;;;;;;;17.60;89.28;100793.84;10439426;28;20127;-78
2023/09/19 21:05:43;;;;;;;1999.90;999.90;;;;;;;17.52;88.80;100789.22;10455623;28;20468;-80
2023/09/19 21:10:45;;;;;;;1999.90;999.90;;;;;;;17.56;88.22;100793.25;10464004;28;20053;-78
2023/09/19 21:15:48;;;;;;;1999.90;999.90;;;;;;;17.61;87.86;100792.88;10466080;28;20124;-77
2023/09/19 21:20:50;;;;;;;1999.90;999.90;;;;;;;17.55;88.13;100782.81;10465743;28;20052;-78
2023/09/19 21:25:55;;;;;;;1999.90;999.90;;;;;;;17.66;87.82;100787.19;10464942;28;20053;-79
2023/09/19 21:31:01;;;;;;;1999.90;999.90;;;;;;;17.61;90.62;100777.81;10464545;28;20049;-77
2023/09/19 21:36:09;;;;;;;1999.90;999.90;;;;;;;17.52;89.27;100765.41;10463081;28;20401;-79
2023/09/19 21:41:16;;;;;;;1999.90;999.90;;;;;;;17.59;88.52;100768.34;10445412;28;20418;-77
2023/09/19 21:46:20;;;;;;;1999.90;999.90;;;;;;;17.67;87.67;100772.94;10463315;28;20049;-77
2023/09/19 21:51:23;;;;;;;1999.90;999.90;;;;;;;17.62;88.40;100763.63;10448029;28;20051;-79
2023/09/19 21:56:25;;;;;;;1999.90;999.90;;;;;;;17.61;88.99;100772.53;10461309;28;20482;-79
2023/09/19 22:01:28;;;;;;;1999.90;999.90;;;;;;;17.68;88.21;100772.00;10463039;28;20087;-77